Time;durP1;ratioP1;P1;durP2;ratioP2;P2;SDS_P1;SDS_P2;PMS_P1;PMS_P2;Temp;Humidity;BMP_temperature;BMP_pressure;BME280_temperature;BME280_humidity;BME280_pressure;Samples;Min_cycle;Max_cycle;Signal;HPM_P1;HPM_P2
2020/12/17 00:01:32;;;;;;;10.43;7.57;;;10.40;99.90;;;;;;4976656;28;20191;-92
2020/12/17 00:03:58;;;;;;;10.97;7.87;;;10.40;99.90;;;;;;4975709;28;20431;-93
2020/12/17 00:06:24;;;;;;;8.27;7.03;;;10.30;99.90;;;;;;4994922;28;20469;-93
2020/12/17 00:08:50;;;;;;;9.03;7.30;;;10.30;99.90;;;;;;4996238;28;20418;-93
2020/12/17 00:11:17;;;;;;;9.83;7.23;;;10.40;99.90;;;;;;4996121;28;20444;-92
2020/12/17 00:13:45;;;;;;;11.20;7.20;;;10.40;99.90;;;;;;4979403;28;20747;-92
2020/12/17 00:16:11;;;;;;;10.10;7.57;;;10.40;99.90;;;;;;4996002;28;20432;-93
2020/12/17 00:18:37;;;;;;;9.90;7.10;;;10.40;99.90;;;;;;4996402;28;20422;-93
2020/12/17 00:21:05;;;;;;;9.20;7.60;;;10.30;99.90;;;;;;4996036;28;21065;-88
2020/12/17 00:23:35;;;;;;;11.67;7.90;;;10.40;99.90;;;;;;4987402;28;20544;-93
2020/12/17 00:26:13;;;;;;;9.87;7.30;;;10.30;99.90;;;;;;4976716;28;20445;-93
2020/12/17 00:28:38;;;;;;;10.53;7.67;;;10.30;99.90;;;;;;4975974;28;20482;-91
2020/12/17 00:31:04;;;;;;;12.00;7.50;;;10.40;99.90;;;;;;4976622;28;20422;-91
2020/12/17 00:33:30;;;;;;;10.53;7.87;;;10.40;99.90;;;;;;4976619;28;20418;-93
2020/12/17 00:35:58;;;;;;;9.73;7.60;;;10.40;99.90;;;;;;4976469;28;20470;-93
2020/12/17 00:38:24;;;;;;;11.30;7.47;;;10.40;99.90;;;;;;4987097;28;20544;-93
2020/12/17 00:40:50;;;;;;;9.30;7.50;;;10.40;99.90;;;;;;4996052;28;20421;-93
2020/12/17 00:43:16;;;;;;;9.37;6.57;;;10.40;99.90;;;;;;4979571;28;20514;-93
2020/12/17 00:45:42;;;;;;;7.93;6.00;;;10.30;99.90;;;;;;5000111;28;20508;-92
2020/12/17 00:48:08;;;;;;;7.97;6.87;;;10.30;99.90;;;;;;4998886;28;21001;-92
2020/12/17 00:50:34;;;;;;;8.90;6.97;;;10.40;99.90;;;;;;4999717;28;20426;-89
2020/12/17 00:53:02;;;;;;;9.30;6.90;;;10.30;99.90;;;;;;4999618;28;20519;-93
2020/12/17 00:55:33;;;;;;;8.30;6.37;;;10.40;99.90;;;;;;4999539;28;20462;-92
2020/12/17 00:58:01;;;;;;;10.87;7.40;;;10.30;99.90;;;;;;4982719;28;20762;-93
2020/12/17 01:00:26;;;;;;;9.13;7.43;;;10.30;99.90;;;;;;4999246;28;20934;-92
2020/12/17 01:02:55;;;;;;;15.97;7.40;;;10.20;99.90;;;;;;4982094;28;20437;-93
2020/12/17 01:05:23;;;;;;;11.70;7.67;;;10.20;99.90;;;;;;4982350;28;20434;-93
2020/12/17 01:07:49;;;;;;;7.70;6.90;;;10.20;99.90;;;;;;4982986;28;20513;-91
2020/12/17 01:10:15;;;;;;;9.90;7.27;;;10.20;99.90;;;;;;4979954;28;20450;-92
2020/12/17 01:12:43;;;;;;;8.83;6.70;;;10.20;99.90;;;;;;4987482;28;20425;-93
2020/12/17 01:15:09;;;;;;;8.77;6.50;;;10.20;99.90;;;;;;4982619;28;20421;-93
2020/12/17 01:17:37;;;;;;;9.57;7.27;;;10.30;99.90;;;;;;4982291;28;20520;-93
2020/12/17 01:20:04;;;;;;;7.93;6.80;;;10.30;99.90;;;;;;4983405;28;20488;-88
2020/12/17 01:22:30;;;;;;;8.87;6.67;;;10.30;99.90;;;;;;4998892;28;20434;-90
2020/12/17 01:25:00;;;;;;;7.53;6.63;;;10.30;99.90;;;;;;4979746;28;20430;-92
2020/12/17 01:27:32;;;;;;;9.70;7.40;;;10.40;99.90;;;;;;4946600;28;20466;-92
2020/12/17 01:29:58;;;;;;;13.93;8.00;;;10.40;99.90;;;;;;4993681;28;20472;-91
2020/12/17 01:32:24;;;;;;;9.33;7.40;;;10.50;99.90;;;;;;4998282;28;20429;-93
2020/12/17 01:34:50;;;;;;;12.57;7.20;;;10.50;99.90;;;;;;4998397;28;20422;-93
2020/12/17 01:37:16;;;;;;;8.53;7.17;;;10.50;99.90;;;;;;4982691;28;20917;-90
2020/12/17 01:39:42;;;;;;;9.37;7.10;;;10.50;99.90;;;;;;4998589;28;20512;-92
2020/12/17 01:42:09;;;;;;;9.27;6.30;;;10.50;99.90;;;;;;4982200;28;20464;-92
2020/12/17 01:44:42;;;;;;;10.17;6.53;;;10.50;99.90;;;;;;4981728;28;20830;-91
2020/12/17 01:47:11;;;;;;;7.97;6.80;;;10.40;99.90;;;;;;4998072;28;20469;-92
2020/12/17 01:49:37;;;;;;;8.90;6.73;;;10.40;99.90;;;;;;4998749;28;20768;-93
2020/12/17 01:52:05;;;;;;;8.53;6.57;;;10.40;99.90;;;;;;4998421;28;20923;-93
2020/12/17 01:54:31;;;;;;;7.67;6.37;;;10.40;99.90;;;;;;4998013;28;20505;-93
2020/12/17 01:57:05;;;;;;;9.30;6.43;;;10.50;99.90;;;;;;4997801;28;20537;-93
2020/12/17 01:59:49;;;;;;;10.10;7.13;;;10.40;99.90;;;;;;4998300;28;20426;-93
2020/12/17 02:03:06;;;;;;;8.27;6.63;;;10.40;99.90;;;;;;4997425;28;20893;-93
2020/12/17 02:05:32;;;;;;;7.80;6.20;;;10.40;99.90;;;;;;4998518;28;20464;-93
2020/12/17 02:08:01;;;;;;;8.57;6.67;;;10.40;99.90;;;;;;4998393;28;20962;-93
2020/12/17 02:10:28;;;;;;;8.33;6.10;;;10.40;99.90;;;;;;4995318;28;20436;-93
2020/12/17 02:12:54;;;;;;;7.00;6.00;;;10.40;99.90;;;;;;5017286;28;20512;-93
2020/12/17 02:15:21;;;;;;;8.23;6.30;;;10.40;99.90;;;;;;5000510;28;20417;-92
2020/12/17 02:17:49;;;;;;;8.40;5.90;;;10.40;99.90;;;;;;5001008;28;20421;-91
2020/12/17 02:20:18;;;;;;;12.30;6.03;;;10.40;99.90;;;;;;4997463;28;20442;-93
2020/12/17 02:22:44;;;;;;;7.63;6.17;;;10.40;99.90;;;;;;5006015;28;20425;-93
2020/12/17 02:25:15;;;;;;;8.50;5.80;;;10.40;99.90;;;;;;5017389;28;20491;-92
2020/12/17 02:27:45;;;;;;;8.80;6.20;;;10.40;99.90;;;;;;5016496;28;20507;-91
2020/12/17 02:30:12;;;;;;;7.13;6.00;;;10.40;99.90;;;;;;5000742;28;20577;-92
2020/12/17 02:32:43;;;;;;;6.67;4.93;;;10.40;99.90;;;;;;4981145;28;20453;-91
2020/12/17 02:35:12;;;;;;;7.97;5.93;;;10.40;99.90;;;;;;4981044;28;20422;-92
2020/12/17 02:37:38;;;;;;;8.07;5.10;;;10.40;99.90;;;;;;4997529;28;20516;-93
2020/12/17 02:40:05;;;;;;;9.47;5.20;;;10.40;99.90;;;;;;4997522;28;20918;-92
2020/12/17 02:42:31;;;;;;;6.67;5.97;;;10.40;99.90;;;;;;4997799;28;20508;-93
2020/12/17 02:44:57;;;;;;;8.13;5.60;;;10.50;99.90;;;;;;4997548;28;20424;-93
2020/12/17 02:47:28;;;;;;;6.70;5.00;;;10.60;99.90;;;;;;4997126;28;20454;-92
2020/12/17 02:49:56;;;;;;;6.53;4.87;;;10.60;99.90;;;;;;4997591;28;20442;-91
2020/12/17 02:52:22;;;;;;;6.60;5.37;;;10.60;99.90;;;;;;4997661;28;20425;-93
2020/12/17 02:54:51;;;;;;;10.97;5.40;;;10.60;99.90;;;;;;4980314;28;20492;-92
2020/12/17 02:57:20;;;;;;;7.37;5.83;;;10.60;99.90;;;;;;4964343;28;20827;-92
2020/12/17 02:59:49;;;;;;;6.67;5.50;;;10.50;99.90;;;;;;4997606;28;20433;-93
2020/12/17 03:02:14;;;;;;;7.43;5.67;;;10.60;99.90;;;;;;4997003;28;20805;-93
2020/12/17 03:04:40;;;;;;;9.63;6.40;;;10.50;99.90;;;;;;4980262;28;20492;-92
2020/12/17 03:07:09;;;;;;;10.87;6.57;;;10.50;99.90;;;;;;4996457;28;20465;-93
2020/12/17 03:09:35;;;;;;;7.23;5.13;;;10.50;99.90;;;;;;4997338;28;20433;-93
2020/12/17 03:12:00;;;;;;;6.73;5.43;;;10.60;99.90;;;;;;4995331;28;20426;-93
2020/12/17 03:14:31;;;;;;;11.20;5.63;;;10.50;99.90;;;;;;4960896;28;20540;-93
2020/12/17 03:17:00;;;;;;;6.77;5.10;;;10.50;99.90;;;;;;4977511;28;20439;-93
2020/12/17 03:19:28;;;;;;;5.97;5.30;;;10.50;99.90;;;;;;4976983;28;20896;-92
2020/12/17 03:21:54;;;;;;;6.77;5.40;;;10.40;99.90;;;;;;4977650;28;20586;-92
2020/12/17 03:24:25;;;;;;;7.10;5.53;;;10.50;99.90;;;;;;4991029;28;20776;-93
2020/12/17 03:26:51;;;;;;;7.63;6.03;;;10.40;99.90;;;;;;4996138;28;20464;-93
2020/12/17 03:29:19;;;;;;;6.67;4.90;;;10.50;99.90;;;;;;4997041;28;20785;-91
2020/12/17 03:31:45;;;;;;;11.50;6.53;;;10.40;99.90;;;;;;4996648;28;20424;-91
2020/12/17 03:34:10;;;;;;;6.60;5.50;;;10.40;99.90;;;;;;5004837;28;20508;-92
2020/12/17 03:36:41;;;;;;;8.27;5.50;;;10.40;99.90;;;;;;4996374;28;20413;-90
2020/12/17 03:39:09;;;;;;;6.93;5.97;;;10.40;99.90;;;;;;4996711;28;20425;-93
2020/12/17 03:41:40;;;;;;;7.37;5.10;;;10.40;99.90;;;;;;4995982;28;20406;-92
2020/12/17 03:44:08;;;;;;;7.67;5.70;;;10.50;99.90;;;;;;4996407;28;20422;-93
2020/12/17 03:46:34;;;;;;;5.73;4.70;;;10.50;99.90;;;;;;4996165;28;20426;-91
2020/12/17 03:49:03;;;;;;;10.43;5.70;;;10.50;99.90;;;;;;4979400;28;20440;-92
2020/12/17 03:51:31;;;;;;;8.40;5.70;;;10.50;99.90;;;;;;4996256;28;20500;-93
2020/12/17 03:54:02;;;;;;;7.90;5.30;;;10.50;99.90;;;;;;5003923;28;20461;-92
2020/12/17 03:56:27;;;;;;;6.40;5.57;;;10.60;99.90;;;;;;5015201;28;20545;-90
2020/12/17 03:58:53;;;;;;;7.23;4.83;;;10.50;99.90;;;;;;5015187;28;20815;-93
2020/12/17 04:01:21;;;;;;;6.50;5.33;;;10.50;99.90;;;;;;5014918;28;20428;-92
2020/12/17 04:03:50;;;;;;;7.90;6.10;;;10.60;99.90;;;;;;5014909;28;20450;-92
2020/12/17 04:06:16;;;;;;;7.10;5.60;;;10.60;99.90;;;;;;5015244;28;20192;-93
2020/12/17 04:08:45;;;;;;;7.50;5.80;;;10.60;99.90;;;;;;5007200;28;20523;-92
2020/12/17 04:11:11;;;;;;;8.23;5.67;;;10.60;99.90;;;;;;4996279;28;20418;-91
2020/12/17 04:13:39;;;;;;;10.00;6.03;;;10.60;99.90;;;;;;4996205;28;20429;-91
2020/12/17 04:16:10;;;;;;;6.70;5.43;;;10.50;99.90;;;;;;4996290;28;20426;-92
2020/12/17 04:18:39;;;;;;;8.80;5.23;;;10.50;99.90;;;;;;4995308;28;20422;-93
2020/12/17 04:21:04;;;;;;;6.50;5.50;;;10.40;99.90;;;;;;4995667;28;20433;-92
2020/12/17 04:23:33;;;;;;;8.87;6.30;;;10.50;99.90;;;;;;5007595;28;20440;-93
2020/12/17 04:26:03;;;;;;;7.40;5.93;;;10.50;99.90;;;;;;4995866;28;20458;-93
2020/12/17 04:28:29;;;;;;;5.73;5.20;;;10.60;99.90;;;;;;5000449;28;20567;-93
2020/12/17 04:30:57;;;;;;;10.50;5.87;;;10.60;99.90;;;;;;5015327;28;20512;-93
2020/12/17 04:33:26;;;;;;;7.93;5.37;;;10.60;99.90;;;;;;5015323;28;20421;-93
2020/12/17 04:35:51;;;;;;;8.70;6.37;;;10.50;99.90;;;;;;5015452;28;20429;-93
2020/12/17 04:38:19;;;;;;;7.17;5.70;;;10.50;99.90;;;;;;5015386;28;20186;-93
2020/12/17 04:40:45;;;;;;;7.93;5.63;;;10.50;99.90;;;;;;5015535;28;20490;-93
2020/12/17 04:43:13;;;;;;;6.10;5.50;;;10.50;99.90;;;;;;4995850;28;20182;-93
2020/12/17 04:45:41;;;;;;;8.23;6.90;;;10.50;99.90;;;;;;4995929;28;20512;-92
2020/12/17 04:48:15;;;;;;;11.30;6.10;;;10.50;99.90;;;;;;4995904;28;20458;-93
2020/12/17 04:50:42;;;;;;;11.03;6.57;;;10.40;99.90;;;;;;5009783;28;20420;-93
2020/12/17 04:53:14;;;;;;;7.97;6.27;;;10.50;99.90;;;;;;5014675;28;20823;-93
2020/12/17 04:55:42;;;;;;;8.80;6.43;;;10.50;99.90;;;;;;5015142;28;20958;-93
2020/12/17 04:58:10;;;;;;;8.70;6.00;;;10.50;99.90;;;;;;5015178;28;20436;-93
2020/12/17 05:00:41;;;;;;;8.00;5.80;;;10.40;99.90;;;;;;5015259;28;20456;-92
2020/12/17 05:03:15;;;;;;;8.40;6.83;;;10.50;99.90;;;;;;5015206;28;20455;-93
2020/12/17 05:05:51;;;;;;;9.40;6.47;;;10.50;99.90;;;;;;4998040;28;20533;-93
2020/12/17 05:08:21;;;;;;;9.33;6.73;;;10.50;99.90;;;;;;4997947;28;20492;-92
2020/12/17 05:10:50;;;;;;;10.40;6.77;;;10.50;99.90;;;;;;5015313;28;20484;-93
2020/12/17 05:13:19;;;;;;;7.33;6.60;;;10.50;99.90;;;;;;4998242;28;20416;-93
2020/12/17 05:15:47;;;;;;;7.90;6.40;;;10.50;99.90;;;;;;5015136;28;20491;-93
2020/12/17 05:18:15;;;;;;;8.60;6.20;;;10.50;99.90;;;;;;5015037;28;20436;-92
2020/12/17 05:20:44;;;;;;;8.10;7.10;;;10.50;99.90;;;;;;5014642;28;20432;-92
2020/12/17 05:23:12;;;;;;;7.90;7.10;;;10.50;99.90;;;;;;5015049;28;20882;-93
2020/12/17 05:25:39;;;;;;;10.37;7.20;;;10.50;99.90;;;;;;5014323;28;20511;-93
2020/12/17 05:28:07;;;;;;;8.70;7.23;;;10.50;99.90;;;;;;4998219;28;20922;-93
2020/12/17 05:30:38;;;;;;;7.07;6.33;;;10.60;99.90;;;;;;5017109;28;21068;-92
2020/12/17 05:33:04;;;;;;;8.43;7.60;;;10.60;99.90;;;;;;4993798;28;20438;-93
2020/12/17 05:35:38;;;;;;;7.10;6.40;;;10.60;99.90;;;;;;4998851;28;20820;-93
2020/12/17 05:38:06;;;;;;;7.70;6.90;;;10.60;99.90;;;;;;4998835;28;20448;-91
2020/12/17 05:40:43;;;;;;;10.10;7.80;;;10.60;99.90;;;;;;4998156;28;20425;-91
2020/12/17 05:43:10;;;;;;;7.47;6.73;;;10.60;99.90;;;;;;4998679;28;20424;-92
2020/12/17 05:45:38;;;;;;;8.30;6.70;;;10.60;99.90;;;;;;4998534;28;20429;-91
2020/12/17 05:48:16;;;;;;;10.57;6.73;;;10.70;99.90;;;;;;4982129;28;20807;-92
2020/12/17 05:51:04;;;;;;;9.43;7.47;;;10.60;99.90;;;;;;4979212;28;20420;-92
2020/12/17 05:53:32;;;;;;;10.90;7.83;;;10.60;99.90;;;;;;5018173;28;20432;-92
2020/12/17 05:56:03;;;;;;;8.43;7.60;;;10.60;99.90;;;;;;5000907;28;20754;-91
2020/12/17 05:58:44;;;;;;;9.97;7.20;;;10.60;99.90;;;;;;4984997;28;20416;-92
2020/12/17 06:01:15;;;;;;;9.03;7.27;;;10.60;99.90;;;;;;5017771;28;20428;-92
2020/12/17 06:03:41;;;;;;;9.50;7.40;;;10.60;99.90;;;;;;5018020;28;20433;-92
2020/12/17 06:06:08;;;;;;;10.60;8.07;;;10.60;99.90;;;;;;5000928;28;20441;-92
2020/12/17 06:08:40;;;;;;;10.50;7.80;;;10.50;99.90;;;;;;5017703;28;20468;-92
2020/12/17 06:11:08;;;;;;;11.80;8.10;;;10.50;99.90;;;;;;4984889;28;20510;-92
2020/12/17 06:13:40;;;;;;;10.10;8.40;;;10.50;99.90;;;;;;4993392;28;20434;-92
2020/12/17 06:16:08;;;;;;;11.10;8.47;;;10.50;99.90;;;;;;4997990;28;20520;-92
2020/12/17 06:19:01;;;;;;;14.70;8.93;;;10.40;99.90;;;;;;5005518;28;20500;-92
2020/12/17 06:21:29;;;;;;;11.37;8.90;;;10.40;99.90;;;;;;4995635;28;20452;-92
2020/12/17 06:24:02;;;;;;;13.33;9.07;;;10.30;99.90;;;;;;4997308;28;20429;-93
2020/12/17 06:26:40;;;;;;;12.00;8.53;;;10.30;99.90;;;;;;4998164;28;20475;-93
2020/12/17 06:29:22;;;;;;;13.13;10.10;;;10.20;99.90;;;;;;5001832;28;20477;-91
2020/12/17 06:31:58;;;;;;;14.90;12.50;;;10.20;99.90;;;;;;4995689;28;20426;-92
2020/12/17 06:34:35;;;;;;;11.77;10.23;;;10.20;99.90;;;;;;4997192;28;20425;-92
2020/12/17 06:37:02;;;;;;;14.23;9.57;;;10.20;99.90;;;;;;4997865;28;20402;-92
2020/12/17 06:39:32;;;;;;;15.90;11.20;;;10.10;99.90;;;;;;5012805;28;20417;-93
2020/12/17 06:41:57;;;;;;;14.43;11.80;;;10.10;99.90;;;;;;4997224;28;20414;-92
2020/12/17 06:44:35;;;;;;;14.33;12.40;;;10.00;99.90;;;;;;4997869;28;20453;-92
2020/12/17 06:47:03;;;;;;;17.73;12.10;;;10.00;99.90;;;;;;5013289;28;20465;-93
2020/12/17 06:49:31;;;;;;;13.03;11.20;;;10.00;99.90;;;;;;4997782;28;20433;-93
2020/12/17 06:52:08;;;;;;;14.80;11.07;;;10.00;99.90;;;;;;5029483;28;20414;-92
2020/12/17 06:54:37;;;;;;;14.40;10.67;;;10.10;99.90;;;;;;4997108;28;20419;-92
2020/12/17 06:57:07;;;;;;;15.03;11.90;;;10.00;99.90;;;;;;4997081;28;20998;-92
2020/12/17 06:59:34;;;;;;;18.10;10.10;;;10.00;99.90;;;;;;4997463;28;20480;-92
2020/12/17 07:02:00;;;;;;;13.40;9.93;;;10.00;99.90;;;;;;4997237;28;20421;-92
2020/12/17 07:04:43;;;;;;;15.20;12.10;;;10.00;99.90;;;;;;5012402;28;20520;-92
2020/12/17 07:07:20;;;;;;;13.30;10.50;;;10.00;99.90;;;;;;4976879;28;20480;-91
2020/12/17 07:09:56;;;;;;;10.80;9.30;;;9.90;99.90;;;;;;4980378;28;20494;-92
2020/12/17 07:12:36;;;;;;;14.60;10.43;;;10.00;99.90;;;;;;4996977;28;20418;-91
2020/12/17 07:15:29;;;;;;;14.03;10.90;;;10.00;99.90;;;;;;4995789;28;20429;-92
2020/12/17 07:18:25;;;;;;;15.43;9.20;;;10.00;99.90;;;;;;4997336;28;20414;-92
2020/12/17 07:20:53;;;;;;;14.33;9.40;;;10.00;99.90;;;;;;4997343;28;20472;-93
2020/12/17 07:23:22;;;;;;;12.53;8.27;;;10.00;99.90;;;;;;4976744;28;20445;-92
2020/12/17 07:25:52;;;;;;;9.70;7.20;;;10.10;99.90;;;;;;4977443;28;20509;-87
2020/12/17 07:28:24;;;;;;;8.43;7.53;;;10.10;99.90;;;;;;4991709;28;20839;-83
2020/12/17 07:30:54;;;;;;;16.83;8.03;;;10.10;99.90;;;;;;4977466;28;20531;-81
2020/12/17 07:33:36;;;;;;;10.43;6.83;;;10.00;99.90;;;;;;4995280;28;20507;-82
2020/12/17 07:36:03;;;;;;;8.83;5.93;;;10.00;99.90;;;;;;4994970;28;20512;-86
2020/12/17 07:38:29;;;;;;;12.53;6.40;;;10.00;99.90;;;;;;4990643;28;20438;-87
2020/12/17 07:40:57;;;;;;;9.00;6.50;;;10.00;99.90;;;;;;4996722;28;20431;-91
2020/12/17 07:43:42;;;;;;;11.00;8.40;;;10.00;99.90;;;;;;4971119;28;20494;-89
2020/12/17 07:46:08;;;;;;;15.20;10.60;;;10.00;99.90;;;;;;4986555;28;20433;-91
2020/12/17 07:48:38;;;;;;;8.97;7.20;;;10.00;99.90;;;;;;4988207;28;20817;-90
2020/12/17 07:51:14;;;;;;;8.90;7.30;;;10.00;99.90;;;;;;4995472;28;20966;-90
2020/12/17 07:53:48;;;;;;;7.60;6.50;;;10.10;99.90;;;;;;4984489;28;20427;-90
2020/12/17 07:56:18;;;;;;;6.80;4.80;;;10.00;99.90;;;;;;4976532;28;20429;-92
2020/12/17 07:58:44;;;;;;;5.23;4.73;;;10.00;99.90;;;;;;4982741;28;20429;-91
2020/12/17 08:01:13;;;;;;;6.70;4.60;;;10.00;99.90;;;;;;4979047;28;20898;-92
2020/12/17 08:03:50;;;;;;;8.53;5.47;;;9.90;99.90;;;;;;4988185;28;20512;-93
2020/12/17 08:06:22;;;;;;;5.50;4.87;;;9.90;99.90;;;;;;4984615;28;20441;-92
2020/12/17 08:08:52;;;;;;;9.87;5.13;;;9.80;99.90;;;;;;4966577;28;20973;-91
2020/12/17 08:11:19;;;;;;;5.67;4.90;;;9.80;99.90;;;;;;4970708;28;20438;-92
2020/12/17 08:13:45;;;;;;;6.50;4.80;;;9.80;99.90;;;;;;4944614;28;20524;-88
2020/12/17 08:16:13;;;;;;;7.70;5.50;;;9.80;99.90;;;;;;4975132;28;20515;-86
2020/12/17 08:18:39;;;;;;;6.80;5.60;;;9.70;99.90;;;;;;4979695;28;20917;-93
2020/12/17 08:21:10;;;;;;;8.53;4.93;;;9.80;99.90;;;;;;4963164;28;20798;-87
2020/12/17 08:23:39;;;;;;;8.60;5.10;;;9.80;99.90;;;;;;4960580;28;20439;-86
2020/12/17 08:26:09;;;;;;;7.30;5.10;;;9.80;99.90;;;;;;4992226;28;20432;-87
2020/12/17 08:28:40;;;;;;;6.97;4.90;;;9.80;99.90;;;;;;4969156;28;20842;-86
2020/12/17 08:31:36;;;;;;;5.83;4.70;;;9.80;99.90;;;;;;4959742;28;20937;-87
2020/12/17 08:34:04;;;;;;;4.63;3.67;;;9.80;99.90;;;;;;4972953;28;20442;-93
2020/12/17 08:36:34;;;;;;;8.67;4.67;;;9.80;99.90;;;;;;4989441;28;20456;-89
2020/12/17 08:39:10;;;;;;;6.07;4.13;;;9.80;99.90;;;;;;4987650;28;20421;-91
2020/12/17 08:41:53;;;;;;;4.63;4.10;;;9.70;99.90;;;;;;4987352;28;20942;-90
2020/12/17 08:44:26;;;;;;;6.50;5.10;;;9.70;99.90;;;;;;4970339;28;20425;-91
2020/12/17 08:46:57;;;;;;;4.50;4.10;;;9.80;99.90;;;;;;4962864;28;20891;-92
2020/12/17 08:49:25;;;;;;;4.87;4.37;;;9.80;99.90;;;;;;4995159;28;20426;-91
2020/12/17 08:52:27;;;;;;;6.03;4.20;;;9.80;99.90;;;;;;4987262;28;20488;-92
2020/12/17 08:55:01;;;;;;;5.43;4.40;;;9.80;99.90;;;;;;4982926;28;20950;-91
2020/12/17 08:57:27;;;;;;;6.77;3.67;;;9.80;99.90;;;;;;4993778;28;20578;-92
2020/12/17 08:59:53;;;;;;;5.20;4.00;;;9.70;99.90;;;;;;4976274;28;20512;-90
2020/12/17 09:02:27;;;;;;;5.60;3.97;;;9.80;99.90;;;;;;4970590;28;20786;-92
2020/12/17 09:04:58;;;;;;;4.53;3.37;;;9.80;99.90;;;;;;4996230;28;20504;-95
2020/12/17 09:07:31;;;;;;;4.03;3.67;;;9.80;99.90;;;;;;4992852;28;20816;-94
2020/12/17 09:10:07;;;;;;;4.50;3.10;;;9.80;99.90;;;;;;4994345;28;20825;-93
2020/12/17 09:12:36;;;;;;;6.57;4.10;;;9.80;99.90;;;;;;4993146;28;20874;-93
2020/12/17 09:15:07;;;;;;;4.40;3.70;;;9.80;99.90;;;;;;4997822;28;20884;-93
2020/12/17 09:17:34;;;;;;;4.43;3.57;;;9.90;99.90;;;;;;4987468;28;20446;-93
2020/12/17 09:20:13;;;;;;;4.03;3.27;;;10.00;99.90;;;;;;4993422;28;20441;-90
2020/12/17 09:22:45;;;;;;;4.77;2.80;;;10.00;99.90;;;;;;4997991;28;20441;-94
2020/12/17 09:25:15;;;;;;;3.00;2.43;;;10.00;99.90;;;;;;4996655;28;20437;-90
2020/12/17 09:27:43;;;;;;;3.40;2.63;;;10.10;99.90;;;;;;4938542;28;20478;-89
2020/12/17 09:30:17;;;;;;;2.93;2.60;;;10.00;99.90;;;;;;4974566;28;20550;-89
2020/12/17 09:32:59;;;;;;;4.60;2.90;;;10.10;99.90;;;;;;4977872;28;20466;-88
2020/12/17 09:35:36;;;;;;;4.00;3.17;;;10.10;99.90;;;;;;4962504;28;20449;-92
2020/12/17 09:38:04;;;;;;;4.53;2.40;;;10.20;99.90;;;;;;4943946;28;20565;-89
2020/12/17 09:40:32;;;;;;;4.80;2.90;;;10.30;99.90;;;;;;4960351;28;20438;-90
2020/12/17 09:43:07;;;;;;;3.73;2.50;;;10.30;99.90;;;;;;4978925;28;20981;-90
2020/12/17 09:45:38;;;;;;;4.30;2.40;;;10.40;99.90;;;;;;4995728;28;20960;-89
2020/12/17 09:48:21;;;;;;;4.43;2.40;;;10.40;99.90;;;;;;4948795;28;20466;-89
2020/12/17 09:51:08;;;;;;;4.47;2.37;;;10.40;99.90;;;;;;4945826;28;20447;-89
2020/12/17 09:53:40;;;;;;;2.97;2.40;;;10.40;99.90;;;;;;4985527;28;20442;-88
2020/12/17 09:56:11;;;;;;;2.60;2.27;;;10.40;99.90;;;;;;4964869;28;20465;-90
2020/12/17 09:58:41;;;;;;;3.60;2.50;;;10.40;99.90;;;;;;4972205;28;20464;-90
2020/12/17 10:01:13;;;;;;;2.53;2.30;;;10.40;99.90;;;;;;4965153;28;20437;-89
2020/12/17 10:03:39;;;;;;;4.77;2.83;;;10.50;99.90;;;;;;4963466;28;20430;-90
2020/12/17 10:06:07;;;;;;;12.23;2.70;;;10.50;99.90;;;;;;4970304;28;20438;-87
2020/12/17 10:08:38;;;;;;;4.00;2.30;;;10.60;99.90;;;;;;4971732;28;20480;-87
2020/12/17 10:11:07;;;;;;;3.37;2.03;;;10.50;99.90;;;;;;4993331;28;20884;-86
2020/12/17 10:13:34;;;;;;;2.83;2.60;;;10.50;99.90;;;;;;4960291;28;20933;-88
2020/12/17 10:16:00;;;;;;;3.73;2.30;;;10.40;99.90;;;;;;4971940;28;20437;-90
2020/12/17 10:18:31;;;;;;;3.30;2.30;;;10.50;99.90;;;;;;4976926;28;20504;-89
2020/12/17 10:20:57;;;;;;;3.50;2.80;;;10.40;99.90;;;;;;4937771;28;20442;-89
2020/12/17 10:23:23;;;;;;;3.00;2.57;;;10.40;99.90;;;;;;4982570;28;20939;-84
2020/12/17 10:25:49;;;;;;;4.50;2.70;;;10.40;99.90;;;;;;4971176;28;20489;-88
2020/12/17 10:28:16;;;;;;;3.83;2.90;;;10.30;99.90;;;;;;4952495;28;20474;-89
2020/12/17 10:30:42;;;;;;;3.47;2.50;;;10.40;99.90;;;;;;4945744;28;20446;-93
2020/12/17 10:33:08;;;;;;;3.83;2.40;;;10.40;99.90;;;;;;4973684;28;20444;-91
2020/12/17 10:35:35;;;;;;;3.67;2.27;;;10.30;99.90;;;;;;4985760;28;20535;-92
2020/12/17 10:38:04;;;;;;;5.13;2.37;;;10.30;99.90;;;;;;4980320;28;20953;-87
2020/12/17 10:40:30;;;;;;;3.77;2.70;;;10.30;99.90;;;;;;4949163;28;20772;-88
2020/12/17 10:42:59;;;;;;;3.00;2.70;;;10.40;99.90;;;;;;4980544;28;20895;-91
2020/12/17 10:45:31;;;;;;;5.83;2.90;;;10.40;99.90;;;;;;4957743;28;20459;-89
2020/12/17 10:47:59;;;;;;;4.40;2.43;;;10.40;99.90;;;;;;4980573;28;20478;-90
2020/12/17 10:50:28;;;;;;;3.50;2.73;;;10.50;99.90;;;;;;4982349;28;20444;-89
2020/12/17 10:52:54;;;;;;;3.87;3.03;;;10.60;99.90;;;;;;4969941;28;20514;-90
2020/12/17 10:55:23;;;;;;;4.10;3.20;;;10.60;99.90;;;;;;4961582;28;20545;-87
2020/12/17 10:57:54;;;;;;;3.47;2.80;;;10.70;99.90;;;;;;4976542;28;20422;-87
2020/12/17 11:00:21;;;;;;;4.00;3.00;;;10.70;99.90;;;;;;4987356;28;20480;-86
2020/12/17 11:02:48;;;;;;;4.70;3.10;;;10.80;99.90;;;;;;4990921;28;20547;-89
2020/12/17 11:05:14;;;;;;;6.80;2.63;;;10.90;99.90;;;;;;4984714;28;20461;-88
2020/12/17 11:07:45;;;;;;;5.20;3.10;;;10.90;99.90;;;;;;4986641;28;20471;-88
2020/12/17 11:10:11;;;;;;;2.60;2.33;;;11.00;99.90;;;;;;4963943;28;20512;-91
2020/12/17 11:12:38;;;;;;;4.13;2.70;;;11.00;99.90;;;;;;4988543;28;20425;-90
2020/12/17 11:15:07;;;;;;;2.63;2.43;;;11.10;99.90;;;;;;4979866;28;20440;-91
2020/12/17 11:17:33;;;;;;;3.50;2.40;;;11.00;99.90;;;;;;4979876;28;20433;-91
2020/12/17 11:20:04;;;;;;;2.57;2.20;;;11.10;99.90;;;;;;4969809;28;20521;-91
2020/12/17 11:22:33;;;;;;;4.43;2.27;;;11.20;99.90;;;;;;4985219;28;20447;-91
2020/12/17 11:25:03;;;;;;;2.83;2.30;;;11.20;99.90;;;;;;4987288;28;20450;-91
2020/12/17 11:27:30;;;;;;;5.90;2.73;;;11.20;99.90;;;;;;4944332;28;20525;-91
2020/12/17 11:29:56;;;;;;;4.37;2.93;;;11.20;99.90;;;;;;4961580;28;20838;-91
2020/12/17 11:32:22;;;;;;;3.03;2.73;;;11.30;99.90;;;;;;5004572;28;20925;-91
2020/12/17 11:34:51;;;;;;;4.47;2.83;;;11.30;99.90;;;;;;5004805;28;20430;-90
2020/12/17 11:37:17;;;;;;;5.10;2.90;;;11.20;99.90;;;;;;4975438;28;20440;-90
2020/12/17 11:39:43;;;;;;;2.87;2.47;;;11.20;99.90;;;;;;5003098;28;20437;-89
2020/12/17 11:42:12;;;;;;;2.83;2.13;;;11.20;99.90;;;;;;4995450;28;20993;-91
2020/12/17 11:44:40;;;;;;;3.07;2.67;;;11.20;99.90;;;;;;4992332;28;20433;-87
2020/12/17 11:47:06;;;;;;;4.17;3.10;;;11.20;99.90;;;;;;5014254;28;20468;-85
2020/12/17 11:49:35;;;;;;;4.67;3.40;;;11.20;99.90;;;;;;5005661;28;20439;-85
2020/12/17 11:52:04;;;;;;;2.87;2.67;;;11.20;99.90;;;;;;5005282;28;20998;-89
2020/12/17 11:54:34;;;;;;;3.23;2.90;;;11.20;99.90;;;;;;4990270;28;20524;-88
2020/12/17 11:57:06;;;;;;;7.53;2.70;;;11.10;99.90;;;;;;5007176;28;20430;-86
2020/12/17 11:59:34;;;;;;;4.97;3.27;;;11.10;99.90;;;;;;4992549;28;20930;-91
2020/12/17 12:02:00;;;;;;;3.80;3.00;;;11.10;99.90;;;;;;4978148;28;20421;-86
2020/12/17 12:04:31;;;;;;;4.30;2.77;;;11.10;99.90;;;;;;5005051;28;20432;-88
2020/12/17 12:06:59;;;;;;;7.93;3.13;;;11.20;99.90;;;;;;5002578;28;20432;-89
2020/12/17 12:09:25;;;;;;;3.10;2.50;;;11.20;99.90;;;;;;4987773;28;20425;-88
2020/12/17 12:11:55;;;;;;;3.10;2.80;;;11.20;99.90;;;;;;4976713;28;20853;-90
2020/12/17 12:14:22;;;;;;;2.80;2.40;;;11.20;99.90;;;;;;4995231;28;20432;-89
2020/12/17 12:16:49;;;;;;;5.80;2.90;;;11.20;99.90;;;;;;5007997;28;20941;-90
2020/12/17 12:19:17;;;;;;;2.60;2.40;;;11.20;99.90;;;;;;4983900;28;20437;-88
2020/12/17 12:21:53;;;;;;;3.30;2.33;;;11.20;99.90;;;;;;4989032;28;20478;-89
2020/12/17 12:24:19;;;;;;;5.13;2.73;;;11.20;99.90;;;;;;4994764;28;20441;-85
2020/12/17 12:26:50;;;;;;;5.63;3.17;;;11.10;99.90;;;;;;4995255;28;20441;-88
2020/12/17 12:29:16;;;;;;;3.77;2.67;;;11.20;99.90;;;;;;5003821;28;20526;-90
2020/12/17 12:31:42;;;;;;;7.43;3.13;;;11.20;99.90;;;;;;5003404;28;20640;-87
2020/12/17 12:34:11;;;;;;;4.90;2.97;;;11.20;99.90;;;;;;5010236;28;20441;-90
2020/12/17 12:36:39;;;;;;;4.20;3.20;;;11.30;99.90;;;;;;5000274;28;20425;-88
2020/12/17 12:39:08;;;;;;;3.90;3.60;;;11.40;99.90;;;;;;5012823;28;20440;-87
2020/12/17 12:41:36;;;;;;;5.73;3.50;;;11.40;99.90;;;;;;4994467;28;20726;-87
2020/12/17 12:44:04;;;;;;;5.27;3.50;;;11.40;99.90;;;;;;5016763;28;20427;-87
2020/12/17 12:46:30;;;;;;;3.93;3.10;;;11.40;99.90;;;;;;4995367;28;20457;-86
2020/12/17 12:48:56;;;;;;;7.63;2.80;;;11.40;99.90;;;;;;4997994;28;20468;-86
2020/12/17 12:51:24;;;;;;;4.33;3.50;;;11.30;99.90;;;;;;4999401;28;21074;-86
2020/12/17 12:53:53;;;;;;;4.40;3.73;;;11.50;99.90;;;;;;5016736;28;20745;-87
2020/12/17 12:56:23;;;;;;;3.87;3.57;;;11.40;99.90;;;;;;5012265;28;20439;-86
2020/12/17 12:58:52;;;;;;;5.90;3.80;;;11.50;99.90;;;;;;5015545;28;20560;-85